Silver Lady — 9HA4060 — position and weather

sailwx.info

Track history (hours):
 
Tides and Currents Weather Stations Pressure Air Temp Water Temp Dewpoint Dewpoint Depression Visibility Wind Speed Wind Dir Waves Ship Positions

Silver Lady

Last reported at 2017-Sep-22 01:58 UTC. Time now 2017-Sep-23 00:28 UTC.
Position N 38°33' W 074°40'.

Length 189 m; draft 6.7 m.

Type: Cargo ship. MMSI: 249008000.

Date/timePositionNaut miles runAvg speedWind from/ knotsBaromVisibWave heightAir tempDewpointWater temp
2017-Sep-22 01:58N 38°33' W 074°40'0 0.0
2017-Sep-21 16:04N 38°33' W 074°40'0 0.0
2017-Sep-21 14:20N 38°33' W 074°40'0 0.2
2017-Sep-21 14:01N 38°33' W 074°40'5 9.3
2017-Sep-21 13:25N 38°36' W 074°34'1112.0
2017-Sep-21 12:33N 38°43' W 074°24'112.2
2017-Sep-21 12:30N 38°43' W 074°23'612.3
2017-Sep-21 11:59N 38°47' W 074°17'710.5
2017-Sep-21 11:18N 38°51' W 074°09'610.1
2017-Sep-21 10:46N 38°54' W 074°03'511.3
2017-Sep-21 10:21N 38°56' W 073°58'712.2
2017-Sep-21 09:48N 38°59' W 073°50'812.0
2017-Sep-21 09:08N 39°03' W 073°41'210.6
2017-Sep-21 08:58N 39°05' W 073°40'20 7.7
2017-Sep-21 06:23N 39°23' W 073°50'2 6.4
2017-Sep-21 06:00N 39°25' W 073°51'3 5.5
2017-Sep-21 05:28N 39°28' W 073°50'4 7.0
2017-Sep-21 04:55N 39°30' W 073°45'3 7.1
2017-Sep-21 04:28N 39°32' W 073°42'4 7.2
2017-Sep-21 03:56N 39°34' W 073°38'10 6.9
2017-Sep-21 02:33N 39°41' W 073°29'1 6.8
2017-Sep-21 02:21N 39°41' W 073°27'42 4.4
2017-Sep-20 16:45N 40°21' W 073°44'1 5.5
2017-Sep-20 16:30N 40°22' W 073°45'3 5.6
2017-Sep-20 16:00N 40°25' W 073°46'3 5.5
2017-Sep-20 15:30N 40°27' W 073°48'510.0
2017-Sep-20 15:01N 40°29' W 073°54'1110.9
2017-Sep-20 14:00N 40°38' W 074°03'1 1.8
2017-Sep-20 13:30N 40°39' W 074°03'0 0.1
2017-Sep-20 13:00N 40°39' W 074°03'0 0.1
2017-Sep-20 12:30N 40°39' W 074°03'0 0.1
2017-Sep-20 12:00N 40°39' W 074°03'0 0.1
2017-Sep-20 11:30N 40°39' W 074°03'0 0.0
2017-Sep-20 11:00N 40°39' W 074°03'0 0.0
2017-Sep-20 10:30N 40°39' W 074°03'0 0.0
2017-Sep-20 10:00N 40°39' W 074°03'0 0.0
2017-Sep-20 09:30N 40°39' W 074°03'0 0.2
2017-Sep-20 09:00N 40°39' W 074°03'0 0.0
2017-Sep-20 08:30N 40°39' W 074°03'0 0.0
2017-Sep-20 08:00N 40°39' W 074°03'0 0.0
2017-Sep-20 07:30N 40°39' W 074°03'0 0.0
2017-Sep-20 07:00N 40°39' W 074°03'0 0.0
2017-Sep-20 06:30N 40°39' W 074°03'0 0.0
2017-Sep-20 06:00N 40°39' W 074°03'0 0.0
2017-Sep-20 05:30N 40°39' W 074°03'0 0.0
2017-Sep-20 05:00N 40°39' W 074°03'0 0.0
2017-Sep-20 04:30N 40°39' W 074°03'0 0.1
2017-Sep-20 04:00N 40°39' W 074°03'0 0.0
2017-Sep-20 03:30N 40°39' W 074°03'0 0.0
2017-Sep-20 03:00N 40°39' W 074°03'0 0.0
2017-Sep-20 02:30N 40°39' W 074°03'0 0.0
2017-Sep-20 02:00N 40°39' W 074°03'0 0.3
2017-Sep-20 01:30N 40°39' W 074°03'0 0.1
2017-Sep-20 01:00N 40°39' W 074°03'0 0.0
2017-Sep-20 00:30N 40°39' W 074°03'0 0.1
2017-Sep-20 00:00N 40°39' W 074°03'0 0.2
2017-Sep-19 23:30N 40°39' W 074°03'0 0.0
2017-Sep-19 23:00N 40°39' W 074°03'0 0.1
2017-Sep-19 22:27N 40°39' W 074°03'0 0.0
2017-Sep-19 22:00N 40°39' W 074°03'0 0.2
2017-Sep-19 21:30N 40°39' W 074°03'0 0.1
2017-Sep-19 21:00N 40°39' W 074°03'0 0.1
2017-Sep-19 20:30N 40°39' W 074°03'0 0.0
2017-Sep-19 20:00N 40°39' W 074°03'0 0.0
2017-Sep-19 19:30N 40°39' W 074°03'0 0.0
2017-Sep-19 19:00N 40°39' W 074°03'0 0.0
2017-Sep-19 18:30N 40°39' W 074°03'0 0.0
2017-Sep-19 18:00N 40°39' W 074°03'0 0.0
2017-Sep-19 17:30N 40°39' W 074°03'0 0.1
2017-Sep-19 17:00N 40°39' W 074°03'0 0.0
2017-Sep-19 16:30N 40°39' W 074°03'0 0.0
2017-Sep-19 16:00N 40°39' W 074°03'0 0.0
2017-Sep-19 15:30N 40°39' W 074°03'0 0.0
2017-Sep-19 15:00N 40°39' W 074°03'0 0.0
2017-Sep-19 14:30N 40°39' W 074°03'0 0.0
2017-Sep-19 14:00N 40°39' W 074°03'0 0.2
2017-Sep-19 13:30N 40°39' W 074°03'0 0.2
2017-Sep-19 13:00N 40°39' W 074°03'0 0.1
2017-Sep-19 12:30N 40°39' W 074°03'0 0.0
2017-Sep-19 12:00N 40°39' W 074°03'0 0.2
2017-Sep-19 11:30N 40°39' W 074°03'0 0.1
2017-Sep-19 11:00N 40°39' W 074°03'0 0.0
2017-Sep-19 10:30N 40°39' W 074°03'0 0.3
2017-Sep-19 10:00N 40°39' W 074°03'0 0.0
2017-Sep-19 09:30N 40°39' W 074°03'0 0.1
2017-Sep-19 09:00N 40°39' W 074°03'0 0.1
2017-Sep-19 08:30N 40°39' W 074°03'0 0.0
2017-Sep-19 08:00N 40°39' W 074°03'0 0.0
2017-Sep-19 07:30N 40°39' W 074°03'0 0.0
2017-Sep-19 07:00N 40°39' W 074°03'0 0.0
2017-Sep-19 06:30N 40°39' W 074°03'0 0.0
2017-Sep-19 06:00N 40°39' W 074°03'0 0.0
2017-Sep-19 05:30N 40°39' W 074°03'0 0.0
2017-Sep-19 05:00N 40°39' W 074°03'0 0.0
2017-Sep-19 04:30N 40°39' W 074°03'0 0.0
2017-Sep-19 04:00N 40°39' W 074°03'0 0.0
2017-Sep-19 03:30N 40°39' W 074°03'0 0.0
2017-Sep-19 03:00N 40°39' W 074°03'0 0.0
2017-Sep-19 02:30N 40°39' W 074°03'0 0.1
2017-Sep-19 02:00N 40°39' W 074°03'0 0.2
2017-Sep-19 01:30N 40°39' W 074°03'0 0.2
2017-Sep-19 01:00N 40°39' W 074°03'0 0.0
2017-Sep-19 00:30N 40°39' W 074°03'0 0.0
2017-Sep-19 00:00N 40°39' W 074°03'0 0.0
2017-Sep-18 23:30N 40°39' W 074°03'0 0.0
2017-Sep-18 23:00N 40°39' W 074°03'0 0.0
2017-Sep-18 22:30N 40°39' W 074°03'0 0.1
2017-Sep-18 22:00N 40°39' W 074°03'0 0.1
2017-Sep-18 21:30N 40°39' W 074°03'0 0.0
2017-Sep-18 21:00N 40°39' W 074°03'0 0.1
2017-Sep-18 20:30N 40°39' W 074°03'0 0.3
2017-Sep-18 20:00N 40°39' W 074°03'0 0.1
2017-Sep-18 19:30N 40°39' W 074°03'0 0.1
2017-Sep-18 19:00N 40°39' W 074°03'0 0.0
2017-Sep-18 18:30N 40°39' W 074°03'0 0.0
2017-Sep-18 18:00N 40°39' W 074°03'0 0.0
2017-Sep-18 17:30N 40°39' W 074°03'0 0.0
2017-Sep-18 17:00N 40°39' W 074°03'0 0.0
2017-Sep-18 16:30N 40°39' W 074°03'0 0.0
2017-Sep-18 16:00N 40°39' W 074°03'0 0.1
2017-Sep-18 15:30N 40°39' W 074°03'0 0.0
2017-Sep-18 15:00N 40°39' W 074°03'0 0.0
2017-Sep-18 14:30N 40°39' W 074°03'0 0.1
2017-Sep-18 14:00N 40°39' W 074°03'0 0.3
2017-Sep-18 13:30N 40°39' W 074°03'0 0.2
2017-Sep-18 13:00N 40°39' W 074°03'0 0.1
2017-Sep-18 12:30N 40°39' W 074°03'0 0.0
2017-Sep-18 12:00N 40°39' W 074°03'0 0.0
2017-Sep-18 11:30N 40°39' W 074°03'0 0.0
2017-Sep-18 11:00N 40°39' W 074°03'0 0.0
2017-Sep-18 10:30N 40°39' W 074°03'0 0.1
2017-Sep-18 10:00N 40°39' W 074°03'1 2.3
2017-Sep-18 09:30N 40°39' W 074°04'2 4.9
2017-Sep-18 09:00N 40°39' W 074°08'3 5.5
2017-Sep-18 08:30N 40°41' W 074°08'0 0.5
2017-Sep-18 08:00N 40°41' W 074°08'0 0.0
2017-Sep-18 07:28N 40°41' W 074°08'0 0.0
2017-Sep-18 06:58N 40°41' W 074°08'0 0.0
2017-Sep-18 06:28N 40°41' W 074°08'0 0.0
2017-Sep-18 05:58N 40°41' W 074°08'0 0.0
2017-Sep-18 05:28N 40°41' W 074°08'0 0.0
2017-Sep-18 04:58N 40°41' W 074°08'0 0.0
2017-Sep-18 04:28N 40°41' W 074°08'0 0.0
2017-Sep-18 03:58N 40°41' W 074°08'0 0.0
2017-Sep-18 03:28N 40°41' W 074°08'0 0.0
2017-Sep-18 02:58N 40°41' W 074°08'0 0.0
2017-Sep-18 02:28N 40°41' W 074°08'0 0.0
2017-Sep-18 01:58N 40°41' W 074°08'0 0.0
2017-Sep-18 01:28N 40°41' W 074°08'0 0.0
2017-Sep-18 00:58N 40°41' W 074°08'0 0.0
2017-Sep-18 00:28N 40°41' W 074°08'0 0.0
2017-Sep-17 23:58N 40°41' W 074°08'0 0.0
2017-Sep-17 23:28N 40°41' W 074°08'0 0.0
2017-Sep-17 22:58N 40°41' W 074°08'0 0.0
2017-Sep-17 22:25N 40°41' W 074°08'0 0.0
2017-Sep-17 21:58N 40°41' W 074°08'0 0.0
2017-Sep-17 21:28N 40°41' W 074°08'0 0.0
2017-Sep-17 20:58N 40°41' W 074°08'0 0.0
2017-Sep-17 20:22N 40°41' W 074°08'0 0.0
2017-Sep-17 19:58N 40°41' W 074°08'0 0.0
2017-Sep-17 19:28N 40°41' W 074°08'0 0.0
2017-Sep-17 18:58N 40°41' W 074°08'0 0.0
2017-Sep-17 18:28N 40°41' W 074°08'0 0.0
2017-Sep-17 17:58N 40°41' W 074°08'0 0.0
2017-Sep-17 17:28N 40°41' W 074°08'0 0.0
2017-Sep-17 16:58N 40°41' W 074°08'0 0.0
2017-Sep-17 16:28N 40°41' W 074°08'0 0.0
2017-Sep-17 15:58N 40°41' W 074°08'0 0.0
2017-Sep-17 15:28N 40°41' W 074°08'0 0.0
2017-Sep-17 14:58N 40°41' W 074°08'0 0.0
2017-Sep-17 14:28N 40°41' W 074°08'0 0.0
2017-Sep-17 13:58N 40°41' W 074°08'0 0.0
2017-Sep-17 13:28N 40°41' W 074°08'0 0.0
2017-Sep-17 12:58N 40°41' W 074°08'0 0.0
2017-Sep-17 12:28N 40°41' W 074°08'0 0.0
2017-Sep-17 11:58N 40°41' W 074°08'0 0.0
2017-Sep-17 11:28N 40°41' W 074°08'0 0.0
2017-Sep-17 10:58N 40°41' W 074°08'0 0.0
2017-Sep-17 10:28N 40°41' W 074°08'0 0.0
2017-Sep-17 09:58N 40°41' W 074°08'0 0.0
2017-Sep-17 09:28N 40°41' W 074°08'0 0.1
2017-Sep-17 08:58N 40°41' W 074°08'0 0.0
2017-Sep-17 08:28N 40°41' W 074°08'0 0.0
2017-Sep-17 07:58N 40°41' W 074°08'0 0.0
2017-Sep-17 07:28N 40°41' W 074°08'0 0.0
2017-Sep-17 06:58N 40°41' W 074°08'0 0.0
2017-Sep-17 06:28N 40°41' W 074°08'0 0.0
2017-Sep-17 05:58N 40°41' W 074°08'0 0.0
2017-Sep-17 05:25N 40°41' W 074°08'0 0.0
2017-Sep-17 04:58N 40°41' W 074°08'0 0.0
2017-Sep-17 04:28N 40°41' W 074°08'0 0.0
2017-Sep-17 03:58N 40°41' W 074°08'0 0.0
2017-Sep-17 03:28N 40°41' W 074°08'0 0.0
2017-Sep-17 02:58N 40°41' W 074°08'0 0.0
2017-Sep-17 02:28N 40°41' W 074°08'0 0.0
2017-Sep-17 01:58N 40°41' W 074°08'0 0.0
2017-Sep-17 01:28N 40°41' W 074°08'0 0.0
2017-Sep-17 00:58N 40°41' W 074°08'0 0.0
2017-Sep-17 00:28N 40°41' W 074°08'0 0.0
2017-Sep-16 23:58N 40°41' W 074°08'0 0.0
2017-Sep-16 23:28N 40°41' W 074°08'0 0.0
2017-Sep-16 22:58N 40°41' W 074°08'0 0.0
2017-Sep-16 22:28N 40°41' W 074°08'0 0.0
2017-Sep-16 21:58N 40°41' W 074°08'0 0.0
2017-Sep-16 21:28N 40°41' W 074°08'0 0.0
2017-Sep-16 20:58N 40°41' W 074°08'0 0.0
2017-Sep-16 20:28N 40°41' W 074°08'0 0.0
2017-Sep-16 19:58N 40°41' W 074°08'0 0.0
2017-Sep-16 19:28N 40°41' W 074°08'0 0.0
2017-Sep-16 18:58N 40°41' W 074°08'0 0.0
2017-Sep-16 18:28N 40°41' W 074°08'0 0.0
2017-Sep-16 17:58N 40°41' W 074°08'0 0.0
2017-Sep-16 17:28N 40°41' W 074°08'0 0.0
2017-Sep-16 16:58N 40°41' W 074°08'0 0.0
2017-Sep-16 16:28N 40°41' W 074°08'0 0.0
2017-Sep-16 15:58N 40°41' W 074°08'0 0.0
2017-Sep-16 15:28N 40°41' W 074°08'0 0.0
2017-Sep-16 14:58N 40°41' W 074°08'0 0.0
2017-Sep-16 14:28N 40°41' W 074°08'0 0.0
2017-Sep-16 13:58N 40°41' W 074°08'0 0.0
2017-Sep-16 13:28N 40°41' W 074°08'0 0.1
2017-Sep-16 12:58N 40°41' W 074°08'0 0.0
2017-Sep-16 12:28N 40°41' W 074°08'0 0.0
2017-Sep-16 11:58N 40°41' W 074°08'0 0.0
2017-Sep-16 11:28N 40°41' W 074°08'0 0.0
2017-Sep-16 10:58N 40°41' W 074°08'0 0.0
2017-Sep-16 10:28N 40°41' W 074°08'0 0.0
2017-Sep-16 09:58N 40°41' W 074°08'0 0.0
2017-Sep-16 09:28N 40°41' W 074°08'0 0.0
2017-Sep-16 08:58N 40°41' W 074°08'0 0.0
2017-Sep-16 08:28N 40°41' W 074°08'0 0.0
2017-Sep-16 07:58N 40°41' W 074°08'0 0.0
2017-Sep-16 07:28N 40°41' W 074°08'0 0.0
2017-Sep-16 06:58N 40°41' W 074°08'0 0.0
2017-Sep-16 06:28N 40°41' W 074°08'0 0.0
2017-Sep-16 05:58N 40°41' W 074°08'0 0.0
2017-Sep-16 05:28N 40°41' W 074°08'0 0.0
2017-Sep-16 04:58N 40°41' W 074°08'0 0.0
2017-Sep-16 04:28N 40°41' W 074°08'0 0.0
2017-Sep-16 03:58N 40°41' W 074°08'0 0.0
2017-Sep-16 03:28N 40°41' W 074°08'0 0.0
2017-Sep-16 02:58N 40°41' W 074°08'0 0.0
2017-Sep-16 02:28N 40°41' W 074°08'0 0.0
2017-Sep-16 01:58N 40°41' W 074°08'0 0.0
2017-Sep-16 01:28N 40°41' W 074°08'0 0.0
2017-Sep-16 00:55N 40°41' W 074°08'0 0.0
2017-Sep-16 00:28N 40°41' W 074°08'0 0.0
2017-Sep-15 23:58N 40°41' W 074°08'0 0.0
2017-Sep-15 23:28N 40°41' W 074°08'0 0.0
2017-Sep-15 22:58N 40°41' W 074°08'0 0.0
2017-Sep-15 22:28N 40°41' W 074°08'0 0.0
2017-Sep-15 21:58N 40°41' W 074°08'0 0.0
2017-Sep-15 21:28N 40°41' W 074°08'0 0.0
2017-Sep-15 20:58N 40°41' W 074°08'0 0.0
2017-Sep-15 20:28N 40°41' W 074°08'0 0.0
2017-Sep-15 19:58N 40°41' W 074°08'0 0.0
2017-Sep-15 19:28N 40°41' W 074°08'0 0.0
2017-Sep-15 18:58N 40°41' W 074°08'0 0.0
2017-Sep-15 18:28N 40°41' W 074°08'0 0.0
2017-Sep-15 17:58N 40°41' W 074°08'0 0.0
2017-Sep-15 17:28N 40°41' W 074°08'0 0.0
2017-Sep-15 16:58N 40°41' W 074°08'0 0.0
2017-Sep-15 16:28N 40°41' W 074°08'0 0.0
2017-Sep-15 15:58N 40°41' W 074°08'0 0.0
2017-Sep-15 15:28N 40°41' W 074°08'0 0.1
2017-Sep-15 14:58N 40°41' W 074°08'0 0.0
2017-Sep-15 14:28N 40°41' W 074°08'0 0.0
2017-Sep-15 13:58N 40°41' W 074°08'0 0.0
2017-Sep-15 13:28N 40°41' W 074°08'0 0.0
2017-Sep-15 12:58N 40°41' W 074°08'0 0.0
2017-Sep-15 12:28N 40°41' W 074°08'0 0.0
2017-Sep-15 11:58N 40°41' W 074°08'0 0.0
2017-Sep-15 11:28N 40°41' W 074°08'0 0.0
2017-Sep-15 10:58N 40°41' W 074°08'0 0.0
2017-Sep-15 10:28N 40°41' W 074°08'0 0.0
2017-Sep-15 09:58N 40°41' W 074°08'0 0.0
2017-Sep-15 09:28N 40°41' W 074°08'0 0.0
2017-Sep-15 08:58N 40°41' W 074°08'0 0.0
2017-Sep-15 08:28N 40°41' W 074°08'0 0.0
2017-Sep-15 07:58N 40°41' W 074°08'0 0.0
2017-Sep-15 07:28N 40°41' W 074°08'0 0.0
2017-Sep-15 06:58N 40°41' W 074°08'0 0.0
2017-Sep-15 06:28N 40°41' W 074°08'0 0.0
2017-Sep-15 05:58N 40°41' W 074°08'0 0.0
2017-Sep-15 05:28N 40°41' W 074°08'0 0.0
2017-Sep-15 04:58N 40°41' W 074°08'0 0.0
2017-Sep-15 04:28N 40°41' W 074°08'0 0.1
2017-Sep-15 03:58N 40°41' W 074°08'0 0.0
2017-Sep-15 03:28N 40°41' W 074°08'0 0.0
2017-Sep-15 02:58N 40°41' W 074°08'0 0.0
2017-Sep-15 02:28N 40°41' W 074°08'0 0.0
2017-Sep-15 01:58N 40°41' W 074°08'0 0.0
2017-Sep-15 01:28N 40°41' W 074°08'0 0.0
2017-Sep-15 00:58N 40°41' W 074°08'0 0.0
2017-Sep-15 00:28N 40°41' W 074°08'0 0.0
2017-Sep-14 23:58N 40°41' W 074°08'0 0.0
2017-Sep-14 23:28N 40°41' W 074°08'0 0.0
2017-Sep-14 22:58N 40°41' W 074°08'0 0.0
2017-Sep-14 22:28N 40°41' W 074°08'0 0.0
2017-Sep-14 21:58N 40°41' W 074°08'0 0.0
2017-Sep-14 21:28N 40°41' W 074°08'0 0.0
2017-Sep-14 20:58N 40°41' W 074°08'0 0.0
2017-Sep-14 20:28N 40°41' W 074°08'0 0.0
2017-Sep-14 19:58N 40°41' W 074°08'0 0.0
2017-Sep-14 19:28N 40°41' W 074°08'0 0.0
2017-Sep-14 18:58N 40°41' W 074°08'0 0.0
2017-Sep-14 18:28N 40°41' W 074°08'0 0.0
2017-Sep-14 17:58N 40°41' W 074°08'0 0.0
2017-Sep-14 17:28N 40°41' W 074°08'0 0.1
2017-Sep-14 16:58N 40°41' W 074°08'0 0.0
2017-Sep-14 16:28N 40°41' W 074°08'0 0.0
2017-Sep-14 15:58N 40°41' W 074°08'0 0.0
2017-Sep-14 15:28N 40°41' W 074°08'0 0.0
2017-Sep-14 14:58N 40°41' W 074°08'0 0.0
2017-Sep-14 14:28N 40°41' W 074°08'0 0.0
2017-Sep-14 13:55N 40°41' W 074°08'0 0.0
2017-Sep-14 13:28N 40°41' W 074°08'0 0.0
2017-Sep-14 12:58N 40°41' W 074°08'0 0.0
2017-Sep-14 12:28N 40°41' W 074°08'0 0.0
2017-Sep-14 11:58N 40°41' W 074°08'0 0.0
2017-Sep-14 11:28N 40°41' W 074°08'0 0.0
2017-Sep-14 10:58N 40°41' W 074°08'0 0.0
2017-Sep-14 10:28N 40°41' W 074°08'0 0.0
2017-Sep-14 09:58N 40°41' W 074°08'0 0.0
2017-Sep-14 09:28N 40°41' W 074°08'0 0.0
2017-Sep-14 09:00N 40°41' W 074°08'0 1.0
2017-Sep-14 08:30N 40°41' W 074°08'2 4.3
2017-Sep-14 08:01N 40°39' W 074°09'3 6.0
2017-Sep-14 07:30N 40°39' W 074°05'3 5.6
2017-Sep-14 07:00N 40°37' W 074°03'510.9
2017-Sep-14 06:30N 40°32' W 074°01'611.8
2017-Sep-14 06:01N 40°29' W 073°54'5 9.1
2017-Sep-14 05:30N 40°27' W 073°48'3 5.7
2017-Sep-14 05:00N 40°28' W 073°45'2 4.3
2017-Sep-14 04:28N 40°28' W 073°42'2 5.1
2017-Sep-14 03:59N 40°30' W 073°39'0 0.2
2017-Sep-14 01:52N 40°30' W 073°38'0 0.0
2017-Sep-13 22:36N 40°30' W 073°38'0 0.0
2017-Sep-13 22:13N 40°30' W 073°38'0 0.0
2017-Sep-13 22:00N 40°30' W 073°38'0 0.0
2017-Sep-13 18:45N 40°30' W 073°38'0 0.0
2017-Sep-13 18:21N 40°30' W 073°38'0 0.1
2017-Sep-13 17:51N 40°30' W 073°39'0 0.0
2017-Sep-13 17:24N 40°30' W 073°39'0 0.0
2017-Sep-13 16:57N 40°30' W 073°39'0 0.0
2017-Sep-13 15:04N 40°30' W 073°39'0 0.1
2017-Sep-13 15:01N 40°30' W 073°39'0 0.0
2017-Sep-13 14:28N 40°30' W 073°39'0 0.1
2017-Sep-13 13:55N 40°30' W 073°38'0 0.0
2017-Sep-13 13:30N 40°30' W 073°38'0 0.1
2017-Sep-13 12:31N 40°30' W 073°38'0 0.0
2017-Sep-13 12:00N 40°30' W 073°38'0 0.0
2017-Sep-13 11:30N 40°30' W 073°38'0 0.0
2017-Sep-13 11:01N 40°30' W 073°38'0 0.0
2017-Sep-13 10:30N 40°30' W 073°38'0 0.0
2017-Sep-13 10:00N 40°30' W 073°38'0 0.0
2017-Sep-13 09:27N 40°30' W 073°38'0 0.0
2017-Sep-13 09:00N 40°30' W 073°38'0 0.0
2017-Sep-13 08:30N 40°30' W 073°38'0 0.1
2017-Sep-13 08:01N 40°30' W 073°38'0 0.0
2017-Sep-13 07:28N 40°30' W 073°38'0 0.0
2017-Sep-13 07:01N 40°30' W 073°38'0 0.0
2017-Sep-13 06:30N 40°30' W 073°38'0 0.0
2017-Sep-13 05:58N 40°30' W 073°38'0 0.0
2017-Sep-13 05:31N 40°30' W 073°38'0 0.0
2017-Sep-13 05:00N 40°30' W 073°38'0 0.0
2017-Sep-13 04:31N 40°30' W 073°38'0 0.0
2017-Sep-13 04:00N 40°30' W 073°38'0 0.0
2017-Sep-13 03:31N 40°30' W 073°38'0 0.0
2017-Sep-13 03:00N 40°30' W 073°38'0 0.0
2017-Sep-13 02:31N 40°30' W 073°38'0 0.0
2017-Sep-13 02:01N 40°30' W 073°38'0 0.0
2017-Sep-13 01:30N 40°30' W 073°38'0 0.0
2017-Sep-13 01:01N 40°30' W 073°38'0 0.0
2017-Sep-13 00:22N 40°30' W 073°38'0 0.0
2017-Sep-13 00:00N 40°30' W 073°38'0 0.0
2017-Sep-12 23:30N 40°30' W 073°38'0 0.0
2017-Sep-12 22:39N 40°30' W 073°38'0 0.0
2017-Sep-12 22:15N 40°30' W 073°38'0 0.0
2017-Sep-12 21:43N 40°30' W 073°38'0 0.0
2017-Sep-12 21:09N 40°30' W 073°38'0 0.0
2017-Sep-12 20:54N 40°30' W 073°38'0 0.0
2017-Sep-12 20:25N 40°30' W 073°38'0 0.0
2017-Sep-12 20:00N 40°30' W 073°38'0 0.0
2017-Sep-12 19:30N 40°30' W 073°38'0 0.0
2017-Sep-12 19:00N 40°30' W 073°38'0 0.0
2017-Sep-12 18:27N 40°30' W 073°38'0 0.0
2017-Sep-12 12:52N 40°30' W 073°39'0 0.1
2017-Sep-12 12:30N 40°30' W 073°39'0 0.1
2017-Sep-12 09:30N 40°30' W 073°38'0 0.0
2017-Sep-12 08:58N 40°30' W 073°38'0 0.0
2017-Sep-12 08:28N 40°30' W 073°38'0 0.0
2017-Sep-12 08:01N 40°30' W 073°38'0 0.0
2017-Sep-12 07:24N 40°30' W 073°38'0 0.0
2017-Sep-12 07:00N 40°30' W 073°38'0 0.0
2017-Sep-12 06:28N 40°30' W 073°38'0 0.0
2017-Sep-12 05:15N 40°30' W 073°38'0 0.0
2017-Sep-12 04:40N 40°30' W 073°38'0 0.1
2017-Sep-12 04:24N 40°30' W 073°38'  
Track history (hours):
 
Tides and Currents Weather Stations Pressure Air Temp Water Temp Dewpoint Dewpoint Depression Visibility Wind Speed Wind Dir Waves Ship Positions

Silver Lady

Last reported at 2017-Sep-22 01:58 UTC. Time now 2017-Sep-23 00:28 UTC.
Position N 38°33' W 074°40'.

Length 189 m; draft 6.7 m.

Type: Cargo ship. MMSI: 249008000.

Date/timePositionNaut miles runAvg speedWind from/ knotsBaromVisibWave heightAir tempDewpointWater temp
2017-Sep-22 01:58N 38°33' W 074°40'0 0.0
2017-Sep-21 16:04N 38°33' W 074°40'0 0.0
2017-Sep-21 14:20N 38°33' W 074°40'0 0.2
2017-Sep-21 14:01N 38°33' W 074°40'5 9.3
2017-Sep-21 13:25N 38°36' W 074°34'1112.0
2017-Sep-21 12:33N 38°43' W 074°24'112.2
2017-Sep-21 12:30N 38°43' W 074°23'612.3
2017-Sep-21 11:59N 38°47' W 074°17'710.5
2017-Sep-21 11:18N 38°51' W 074°09'610.1
2017-Sep-21 10:46N 38°54' W 074°03'511.3
2017-Sep-21 10:21N 38°56' W 073°58'712.2
2017-Sep-21 09:48N 38°59' W 073°50'812.0
2017-Sep-21 09:08N 39°03' W 073°41'210.6
2017-Sep-21 08:58N 39°05' W 073°40'20 7.7
2017-Sep-21 06:23N 39°23' W 073°50'2 6.4
2017-Sep-21 06:00N 39°25' W 073°51'3 5.5
2017-Sep-21 05:28N 39°28' W 073°50'4 7.0
2017-Sep-21 04:55N 39°30' W 073°45'3 7.1
2017-Sep-21 04:28N 39°32' W 073°42'4 7.2
2017-Sep-21 03:56N 39°34' W 073°38'10 6.9
2017-Sep-21 02:33N 39°41' W 073°29'1 6.8
2017-Sep-21 02:21N 39°41' W 073°27'42 4.4
2017-Sep-20 16:45N 40°21' W 073°44'1 5.5
2017-Sep-20 16:30N 40°22' W 073°45'3 5.6
2017-Sep-20 16:00N 40°25' W 073°46'3 5.5
2017-Sep-20 15:30N 40°27' W 073°48'510.0
2017-Sep-20 15:01N 40°29' W 073°54'1110.9
2017-Sep-20 14:00N 40°38' W 074°03'1 1.8
2017-Sep-20 13:30N 40°39' W 074°03'0 0.1
2017-Sep-20 13:00N 40°39' W 074°03'0 0.1
2017-Sep-20 12:30N 40°39' W 074°03'0 0.1
2017-Sep-20 12:00N 40°39' W 074°03'0 0.1
2017-Sep-20 11:30N 40°39' W 074°03'0 0.0
2017-Sep-20 11:00N 40°39' W 074°03'0 0.0
2017-Sep-20 10:30N 40°39' W 074°03'0 0.0
2017-Sep-20 10:00N 40°39' W 074°03'0 0.0
2017-Sep-20 09:30N 40°39' W 074°03'0 0.2
2017-Sep-20 09:00N 40°39' W 074°03'0 0.0
2017-Sep-20 08:30N 40°39' W 074°03'0 0.0
2017-Sep-20 08:00N 40°39' W 074°03'0 0.0
2017-Sep-20 07:30N 40°39' W 074°03'0 0.0
2017-Sep-20 07:00N 40°39' W 074°03'0 0.0
2017-Sep-20 06:30N 40°39' W 074°03'0 0.0
2017-Sep-20 06:00N 40°39' W 074°03'0 0.0
2017-Sep-20 05:30N 40°39' W 074°03'0 0.0
2017-Sep-20 05:00N 40°39' W 074°03'0 0.0
2017-Sep-20 04:30N 40°39' W 074°03'0 0.1
2017-Sep-20 04:00N 40°39' W 074°03'0 0.0
2017-Sep-20 03:30N 40°39' W 074°03'0 0.0
2017-Sep-20 03:00N 40°39' W 074°03'0 0.0
2017-Sep-20 02:30N 40°39' W 074°03'0 0.0
2017-Sep-20 02:00N 40°39' W 074°03'0 0.3
2017-Sep-20 01:30N 40°39' W 074°03'0 0.1
2017-Sep-20 01:00N 40°39' W 074°03'0 0.0
2017-Sep-20 00:30N 40°39' W 074°03'0 0.1
2017-Sep-20 00:00N 40°39' W 074°03'0 0.2
2017-Sep-19 23:30N 40°39' W 074°03'0 0.0
2017-Sep-19 23:00N 40°39' W 074°03'0 0.1
2017-Sep-19 22:27N 40°39' W 074°03'0 0.0
2017-Sep-19 22:00N 40°39' W 074°03'0 0.2
2017-Sep-19 21:30N 40°39' W 074°03'0 0.1
2017-Sep-19 21:00N 40°39' W 074°03'0 0.1
2017-Sep-19 20:30N 40°39' W 074°03'0 0.0
2017-Sep-19 20:00N 40°39' W 074°03'0 0.0
2017-Sep-19 19:30N 40°39' W 074°03'0 0.0
2017-Sep-19 19:00N 40°39' W 074°03'0 0.0
2017-Sep-19 18:30N 40°39' W 074°03'0 0.0
2017-Sep-19 18:00N 40°39' W 074°03'0 0.0
2017-Sep-19 17:30N 40°39' W 074°03'0 0.1
2017-Sep-19 17:00N 40°39' W 074°03'0 0.0
2017-Sep-19 16:30N 40°39' W 074°03'0 0.0
2017-Sep-19 16:00N 40°39' W 074°03'0 0.0
2017-Sep-19 15:30N 40°39' W 074°03'0 0.0
2017-Sep-19 15:00N 40°39' W 074°03'0 0.0
2017-Sep-19 14:30N 40°39' W 074°03'0 0.0
2017-Sep-19 14:00N 40°39' W 074°03'0 0.2
2017-Sep-19 13:30N 40°39' W 074°03'0 0.2
2017-Sep-19 13:00N 40°39' W 074°03'0 0.1
2017-Sep-19 12:30N 40°39' W 074°03'0 0.0
2017-Sep-19 12:00N 40°39' W 074°03'0 0.2
2017-Sep-19 11:30N 40°39' W 074°03'0 0.1
2017-Sep-19 11:00N 40°39' W 074°03'0 0.0
2017-Sep-19 10:30N 40°39' W 074°03'0 0.3
2017-Sep-19 10:00N 40°39' W 074°03'0 0.0
2017-Sep-19 09:30N 40°39' W 074°03'0 0.1
2017-Sep-19 09:00N 40°39' W 074°03'0 0.1
2017-Sep-19 08:30N 40°39' W 074°03'0 0.0
2017-Sep-19 08:00N 40°39' W 074°03'0 0.0
2017-Sep-19 07:30N 40°39' W 074°03'0 0.0
2017-Sep-19 07:00N 40°39' W 074°03'0 0.0
2017-Sep-19 06:30N 40°39' W 074°03'0 0.0
2017-Sep-19 06:00N 40°39' W 074°03'0 0.0
2017-Sep-19 05:30N 40°39' W 074°03'0 0.0
2017-Sep-19 05:00N 40°39' W 074°03'0 0.0
2017-Sep-19 04:30N 40°39' W 074°03'0 0.0
2017-Sep-19 04:00N 40°39' W 074°03'0 0.0
2017-Sep-19 03:30N 40°39' W 074°03'0 0.0
2017-Sep-19 03:00N 40°39' W 074°03'0 0.0
2017-Sep-19 02:30N 40°39' W 074°03'0 0.1
2017-Sep-19 02:00N 40°39' W 074°03'0 0.2
2017-Sep-19 01:30N 40°39' W 074°03'0 0.2
2017-Sep-19 01:00N 40°39' W 074°03'0 0.0
2017-Sep-19 00:30N 40°39' W 074°03'0 0.0
2017-Sep-19 00:00N 40°39' W 074°03'0 0.0
2017-Sep-18 23:30N 40°39' W 074°03'0 0.0
2017-Sep-18 23:00N 40°39' W 074°03'0 0.0
2017-Sep-18 22:30N 40°39' W 074°03'0 0.1
2017-Sep-18 22:00N 40°39' W 074°03'0 0.1
2017-Sep-18 21:30N 40°39' W 074°03'0 0.0
2017-Sep-18 21:00N 40°39' W 074°03'0 0.1
2017-Sep-18 20:30N 40°39' W 074°03'0 0.3
2017-Sep-18 20:00N 40°39' W 074°03'0 0.1
2017-Sep-18 19:30N 40°39' W 074°03'0 0.1
2017-Sep-18 19:00N 40°39' W 074°03'0 0.0
2017-Sep-18 18:30N 40°39' W 074°03'0 0.0
2017-Sep-18 18:00N 40°39' W 074°03'0 0.0
2017-Sep-18 17:30N 40°39' W 074°03'0 0.0
2017-Sep-18 17:00N 40°39' W 074°03'0 0.0
2017-Sep-18 16:30N 40°39' W 074°03'0 0.0
2017-Sep-18 16:00N 40°39' W 074°03'0 0.1
2017-Sep-18 15:30N 40°39' W 074°03'0 0.0
2017-Sep-18 15:00N 40°39' W 074°03'0 0.0
2017-Sep-18 14:30N 40°39' W 074°03'0 0.1
2017-Sep-18 14:00N 40°39' W 074°03'0 0.3
2017-Sep-18 13:30N 40°39' W 074°03'0 0.2
2017-Sep-18 13:00N 40°39' W 074°03'0 0.1
2017-Sep-18 12:30N 40°39' W 074°03'0 0.0
2017-Sep-18 12:00N 40°39' W 074°03'0 0.0
2017-Sep-18 11:30N 40°39' W 074°03'0 0.0
2017-Sep-18 11:00N 40°39' W 074°03'0 0.0
2017-Sep-18 10:30N 40°39' W 074°03'0 0.1
2017-Sep-18 10:00N 40°39' W 074°03'1 2.3
2017-Sep-18 09:30N 40°39' W 074°04'2 4.9
2017-Sep-18 09:00N 40°39' W 074°08'3 5.5
2017-Sep-18 08:30N 40°41' W 074°08'0 0.5
2017-Sep-18 08:00N 40°41' W 074°08'0 0.0
2017-Sep-18 07:28N 40°41' W 074°08'0 0.0
2017-Sep-18 06:58N 40°41' W 074°08'0 0.0
2017-Sep-18 06:28N 40°41' W 074°08'0 0.0
2017-Sep-18 05:58N 40°41' W 074°08'0 0.0
2017-Sep-18 05:28N 40°41' W 074°08'0 0.0
2017-Sep-18 04:58N 40°41' W 074°08'0 0.0
2017-Sep-18 04:28N 40°41' W 074°08'0 0.0
2017-Sep-18 03:58N 40°41' W 074°08'0 0.0
2017-Sep-18 03:28N 40°41' W 074°08'0 0.0
2017-Sep-18 02:58N 40°41' W 074°08'0 0.0
2017-Sep-18 02:28N 40°41' W 074°08'0 0.0
2017-Sep-18 01:58N 40°41' W 074°08'0 0.0
2017-Sep-18 01:28N 40°41' W 074°08'0 0.0
2017-Sep-18 00:58N 40°41' W 074°08'0 0.0
2017-Sep-18 00:28N 40°41' W 074°08'0 0.0
2017-Sep-17 23:58N 40°41' W 074°08'0 0.0
2017-Sep-17 23:28N 40°41' W 074°08'0 0.0
2017-Sep-17 22:58N 40°41' W 074°08'0 0.0
2017-Sep-17 22:25N 40°41' W 074°08'0 0.0
2017-Sep-17 21:58N 40°41' W 074°08'0 0.0
2017-Sep-17 21:28N 40°41' W 074°08'0 0.0
2017-Sep-17 20:58N 40°41' W 074°08'0 0.0
2017-Sep-17 20:22N 40°41' W 074°08'0 0.0
2017-Sep-17 19:58N 40°41' W 074°08'0 0.0
2017-Sep-17 19:28N 40°41' W 074°08'0 0.0
2017-Sep-17 18:58N 40°41' W 074°08'0 0.0
2017-Sep-17 18:28N 40°41' W 074°08'0 0.0
2017-Sep-17 17:58N 40°41' W 074°08'0 0.0
2017-Sep-17 17:28N 40°41' W 074°08'0 0.0
2017-Sep-17 16:58N 40°41' W 074°08'0 0.0
2017-Sep-17 16:28N 40°41' W 074°08'0 0.0
2017-Sep-17 15:58N 40°41' W 074°08'0 0.0
2017-Sep-17 15:28N 40°41' W 074°08'0 0.0
2017-Sep-17 14:58N 40°41' W 074°08'0 0.0
2017-Sep-17 14:28N 40°41' W 074°08'0 0.0
2017-Sep-17 13:58N 40°41' W 074°08'0 0.0
2017-Sep-17 13:28N 40°41' W 074°08'0 0.0
2017-Sep-17 12:58N 40°41' W 074°08'0 0.0
2017-Sep-17 12:28N 40°41' W 074°08'0 0.0
2017-Sep-17 11:58N 40°41' W 074°08'0 0.0
2017-Sep-17 11:28N 40°41' W 074°08'0 0.0
2017-Sep-17 10:58N 40°41' W 074°08'0 0.0
2017-Sep-17 10:28N 40°41' W 074°08'0 0.0
2017-Sep-17 09:58N 40°41' W 074°08'0 0.0
2017-Sep-17 09:28N 40°41' W 074°08'0 0.1
2017-Sep-17 08:58N 40°41' W 074°08'0 0.0
2017-Sep-17 08:28N 40°41' W 074°08'0 0.0
2017-Sep-17 07:58N 40°41' W 074°08'0 0.0
2017-Sep-17 07:28N 40°41' W 074°08'0 0.0
2017-Sep-17 06:58N 40°41' W 074°08'0 0.0
2017-Sep-17 06:28N 40°41' W 074°08'0 0.0
2017-Sep-17 05:58N 40°41' W 074°08'0 0.0
2017-Sep-17 05:25N 40°41' W 074°08'0 0.0
2017-Sep-17 04:58N 40°41' W 074°08'0 0.0
2017-Sep-17 04:28N 40°41' W 074°08'0 0.0
2017-Sep-17 03:58N 40°41' W 074°08'0 0.0
2017-Sep-17 03:28N 40°41' W 074°08'0 0.0
2017-Sep-17 02:58N 40°41' W 074°08'0 0.0
2017-Sep-17 02:28N 40°41' W 074°08'0 0.0
2017-Sep-17 01:58N 40°41' W 074°08'0 0.0
2017-Sep-17 01:28N 40°41' W 074°08'0 0.0
2017-Sep-17 00:58N 40°41' W 074°08'0 0.0
2017-Sep-17 00:28N 40°41' W 074°08'0 0.0
2017-Sep-16 23:58N 40°41' W 074°08'0 0.0
2017-Sep-16 23:28N 40°41' W 074°08'0 0.0
2017-Sep-16 22:58N 40°41' W 074°08'0 0.0
2017-Sep-16 22:28N 40°41' W 074°08'0 0.0
2017-Sep-16 21:58N 40°41' W 074°08'0 0.0
2017-Sep-16 21:28N 40°41' W 074°08'0 0.0
2017-Sep-16 20:58N 40°41' W 074°08'0 0.0
2017-Sep-16 20:28N 40°41' W 074°08'0 0.0
2017-Sep-16 19:58N 40°41' W 074°08'0 0.0
2017-Sep-16 19:28N 40°41' W 074°08'0 0.0
2017-Sep-16 18:58N 40°41' W 074°08'0 0.0
2017-Sep-16 18:28N 40°41' W 074°08'0 0.0
2017-Sep-16 17:58N 40°41' W 074°08'0 0.0
2017-Sep-16 17:28N 40°41' W 074°08'0 0.0
2017-Sep-16 16:58N 40°41' W 074°08'0 0.0
2017-Sep-16 16:28N 40°41' W 074°08'0 0.0
2017-Sep-16 15:58N 40°41' W 074°08'0 0.0
2017-Sep-16 15:28N 40°41' W 074°08'0 0.0
2017-Sep-16 14:58N 40°41' W 074°08'0 0.0
2017-Sep-16 14:28N 40°41' W 074°08'0 0.0
2017-Sep-16 13:58N 40°41' W 074°08'0 0.0
2017-Sep-16 13:28N 40°41' W 074°08'0 0.1
2017-Sep-16 12:58N 40°41' W 074°08'0 0.0
2017-Sep-16 12:28N 40°41' W 074°08'0 0.0
2017-Sep-16 11:58N 40°41' W 074°08'0 0.0
2017-Sep-16 11:28N 40°41' W 074°08'0 0.0
2017-Sep-16 10:58N 40°41' W 074°08'0 0.0
2017-Sep-16 10:28N 40°41' W 074°08'0 0.0
2017-Sep-16 09:58N 40°41' W 074°08'0 0.0
2017-Sep-16 09:28N 40°41' W 074°08'0 0.0
2017-Sep-16 08:58N 40°41' W 074°08'0 0.0
2017-Sep-16 08:28N 40°41' W 074°08'0 0.0
2017-Sep-16 07:58N 40°41' W 074°08'0 0.0
2017-Sep-16 07:28N 40°41' W 074°08'0 0.0
2017-Sep-16 06:58N 40°41' W 074°08'0 0.0
2017-Sep-16 06:28N 40°41' W 074°08'0 0.0
2017-Sep-16 05:58N 40°41' W 074°08'0 0.0
2017-Sep-16 05:28N 40°41' W 074°08'0 0.0
2017-Sep-16 04:58N 40°41' W 074°08'0 0.0
2017-Sep-16 04:28N 40°41' W 074°08'0 0.0
2017-Sep-16 03:58N 40°41' W 074°08'0 0.0
2017-Sep-16 03:28N 40°41' W 074°08'0 0.0
2017-Sep-16 02:58N 40°41' W 074°08'0 0.0
2017-Sep-16 02:28N 40°41' W 074°08'0 0.0
2017-Sep-16 01:58N 40°41' W 074°08'0 0.0
2017-Sep-16 01:28N 40°41' W 074°08'0 0.0
2017-Sep-16 00:55N 40°41' W 074°08'0 0.0
2017-Sep-16 00:28N 40°41' W 074°08'0 0.0
2017-Sep-15 23:58N 40°41' W 074°08'0 0.0
2017-Sep-15 23:28N 40°41' W 074°08'0 0.0
2017-Sep-15 22:58N 40°41' W 074°08'0 0.0
2017-Sep-15 22:28N 40°41' W 074°08'0 0.0
2017-Sep-15 21:58N 40°41' W 074°08'0 0.0
2017-Sep-15 21:28N 40°41' W 074°08'0 0.0
2017-Sep-15 20:58N 40°41' W 074°08'0 0.0
2017-Sep-15 20:28N 40°41' W 074°08'0 0.0
2017-Sep-15 19:58N 40°41' W 074°08'0 0.0
2017-Sep-15 19:28N 40°41' W 074°08'0 0.0
2017-Sep-15 18:58N 40°41' W 074°08'0 0.0
2017-Sep-15 18:28N 40°41' W 074°08'0 0.0
2017-Sep-15 17:58N 40°41' W 074°08'0 0.0
2017-Sep-15 17:28N 40°41' W 074°08'0 0.0
2017-Sep-15 16:58N 40°41' W 074°08'0 0.0
2017-Sep-15 16:28N 40°41' W 074°08'0 0.0
2017-Sep-15 15:58N 40°41' W 074°08'0 0.0
2017-Sep-15 15:28N 40°41' W 074°08'0 0.1
2017-Sep-15 14:58N 40°41' W 074°08'0 0.0
2017-Sep-15 14:28N 40°41' W 074°08'0 0.0
2017-Sep-15 13:58N 40°41' W 074°08'0 0.0
2017-Sep-15 13:28N 40°41' W 074°08'0 0.0
2017-Sep-15 12:58N 40°41' W 074°08'0 0.0
2017-Sep-15 12:28N 40°41' W 074°08'0 0.0
2017-Sep-15 11:58N 40°41' W 074°08'0 0.0
2017-Sep-15 11:28N 40°41' W 074°08'0 0.0
2017-Sep-15 10:58N 40°41' W 074°08'0 0.0
2017-Sep-15 10:28N 40°41' W 074°08'0 0.0
2017-Sep-15 09:58N 40°41' W 074°08'0 0.0
2017-Sep-15 09:28N 40°41' W 074°08'0 0.0
2017-Sep-15 08:58N 40°41' W 074°08'0 0.0
2017-Sep-15 08:28N 40°41' W 074°08'0 0.0
2017-Sep-15 07:58N 40°41' W 074°08'0 0.0
2017-Sep-15 07:28N 40°41' W 074°08'0 0.0
2017-Sep-15 06:58N 40°41' W 074°08'0 0.0
2017-Sep-15 06:28N 40°41' W 074°08'0 0.0
2017-Sep-15 05:58N 40°41' W 074°08'0 0.0
2017-Sep-15 05:28N 40°41' W 074°08'0 0.0
2017-Sep-15 04:58N 40°41' W 074°08'0 0.0
2017-Sep-15 04:28N 40°41' W 074°08'0 0.1
2017-Sep-15 03:58N 40°41' W 074°08'0 0.0
2017-Sep-15 03:28N 40°41' W 074°08'0 0.0
2017-Sep-15 02:58N 40°41' W 074°08'0 0.0
2017-Sep-15 02:28N 40°41' W 074°08'0 0.0
2017-Sep-15 01:58N 40°41' W 074°08'0 0.0
2017-Sep-15 01:28N 40°41' W 074°08'0 0.0
2017-Sep-15 00:58N 40°41' W 074°08'0 0.0
2017-Sep-15 00:28N 40°41' W 074°08'0 0.0
2017-Sep-14 23:58N 40°41' W 074°08'0 0.0
2017-Sep-14 23:28N 40°41' W 074°08'0 0.0
2017-Sep-14 22:58N 40°41' W 074°08'0 0.0
2017-Sep-14 22:28N 40°41' W 074°08'0 0.0
2017-Sep-14 21:58N 40°41' W 074°08'0 0.0
2017-Sep-14 21:28N 40°41' W 074°08'0 0.0
2017-Sep-14 20:58N 40°41' W 074°08'0 0.0
2017-Sep-14 20:28N 40°41' W 074°08'0 0.0
2017-Sep-14 19:58N 40°41' W 074°08'0 0.0
2017-Sep-14 19:28N 40°41' W 074°08'0 0.0
2017-Sep-14 18:58N 40°41' W 074°08'0 0.0
2017-Sep-14 18:28N 40°41' W 074°08'0 0.0
2017-Sep-14 17:58N 40°41' W 074°08'0 0.0
2017-Sep-14 17:28N 40°41' W 074°08'0 0.1
2017-Sep-14 16:58N 40°41' W 074°08'0 0.0
2017-Sep-14 16:28N 40°41' W 074°08'0 0.0
2017-Sep-14 15:58N 40°41' W 074°08'0 0.0
2017-Sep-14 15:28N 40°41' W 074°08'0 0.0
2017-Sep-14 14:58N 40°41' W 074°08'0 0.0
2017-Sep-14 14:28N 40°41' W 074°08'0 0.0
2017-Sep-14 13:55N 40°41' W 074°08'0 0.0
2017-Sep-14 13:28N 40°41' W 074°08'0 0.0
2017-Sep-14 12:58N 40°41' W 074°08'0 0.0
2017-Sep-14 12:28N 40°41' W 074°08'0 0.0
2017-Sep-14 11:58N 40°41' W 074°08'0 0.0
2017-Sep-14 11:28N 40°41' W 074°08'0 0.0
2017-Sep-14 10:58N 40°41' W 074°08'0 0.0
2017-Sep-14 10:28N 40°41' W 074°08'0 0.0
2017-Sep-14 09:58N 40°41' W 074°08'0 0.0
2017-Sep-14 09:28N 40°41' W 074°08'0 0.0
2017-Sep-14 09:00N 40°41' W 074°08'0 1.0
2017-Sep-14 08:30N 40°41' W 074°08'2 4.3
2017-Sep-14 08:01N 40°39' W 074°09'3 6.0
2017-Sep-14 07:30N 40°39' W 074°05'3 5.6
2017-Sep-14 07:00N 40°37' W 074°03'510.9
2017-Sep-14 06:30N 40°32' W 074°01'611.8
2017-Sep-14 06:01N 40°29' W 073°54'5 9.1
2017-Sep-14 05:30N 40°27' W 073°48'3 5.7
2017-Sep-14 05:00N 40°28' W 073°45'2 4.3
2017-Sep-14 04:28N 40°28' W 073°42'2 5.1
2017-Sep-14 03:59N 40°30' W 073°39'0 0.2
2017-Sep-14 01:52N 40°30' W 073°38'0 0.0
2017-Sep-13 22:36N 40°30' W 073°38'0 0.0
2017-Sep-13 22:13N 40°30' W 073°38'0 0.0
2017-Sep-13 22:00N 40°30' W 073°38'0 0.0
2017-Sep-13 18:45N 40°30' W 073°38'0 0.0
2017-Sep-13 18:21N 40°30' W 073°38'0 0.1
2017-Sep-13 17:51N 40°30' W 073°39'0 0.0
2017-Sep-13 17:24N 40°30' W 073°39'0 0.0
2017-Sep-13 16:57N 40°30' W 073°39'0 0.0
2017-Sep-13 15:04N 40°30' W 073°39'0 0.1
2017-Sep-13 15:01N 40°30' W 073°39'0 0.0
2017-Sep-13 14:28N 40°30' W 073°39'0 0.1
2017-Sep-13 13:55N 40°30' W 073°38'0 0.0
2017-Sep-13 13:30N 40°30' W 073°38'0 0.1
2017-Sep-13 12:31N 40°30' W 073°38'0 0.0
2017-Sep-13 12:00N 40°30' W 073°38'0 0.0
2017-Sep-13 11:30N 40°30' W 073°38'0 0.0
2017-Sep-13 11:01N 40°30' W 073°38'0 0.0
2017-Sep-13 10:30N 40°30' W 073°38'0 0.0
2017-Sep-13 10:00N 40°30' W 073°38'0 0.0
2017-Sep-13 09:27N 40°30' W 073°38'0 0.0
2017-Sep-13 09:00N 40°30' W 073°38'0 0.0
2017-Sep-13 08:30N 40°30' W 073°38'0 0.1
2017-Sep-13 08:01N 40°30' W 073°38'0 0.0
2017-Sep-13 07:28N 40°30' W 073°38'0 0.0
2017-Sep-13 07:01N 40°30' W 073°38'0 0.0
2017-Sep-13 06:30N 40°30' W 073°38'0 0.0
2017-Sep-13 05:58N 40°30' W 073°38'0 0.0
2017-Sep-13 05:31N 40°30' W 073°38'0 0.0
2017-Sep-13 05:00N 40°30' W 073°38'0 0.0
2017-Sep-13 04:31N 40°30' W 073°38'0 0.0
2017-Sep-13 04:00N 40°30' W 073°38'0 0.0
2017-Sep-13 03:31N 40°30' W 073°38'0 0.0
2017-Sep-13 03:00N 40°30' W 073°38'0 0.0
2017-Sep-13 02:31N 40°30' W 073°38'0 0.0
2017-Sep-13 02:01N 40°30' W 073°38'0 0.0
2017-Sep-13 01:30N 40°30' W 073°38'0 0.0
2017-Sep-13 01:01N 40°30' W 073°38'0 0.0
2017-Sep-13 00:22N 40°30' W 073°38'0 0.0
2017-Sep-13 00:00N 40°30' W 073°38'0 0.0
2017-Sep-12 23:30N 40°30' W 073°38'0 0.0
2017-Sep-12 22:39N 40°30' W 073°38'0 0.0
2017-Sep-12 22:15N 40°30' W 073°38'0 0.0
2017-Sep-12 21:43N 40°30' W 073°38'0 0.0
2017-Sep-12 21:09N 40°30' W 073°38'0 0.0
2017-Sep-12 20:54N 40°30' W 073°38'0 0.0
2017-Sep-12 20:25N 40°30' W 073°38'0 0.0
2017-Sep-12 20:00N 40°30' W 073°38'0 0.0
2017-Sep-12 19:30N 40°30' W 073°38'0 0.0
2017-Sep-12 19:00N 40°30' W 073°38'0 0.0
2017-Sep-12 18:27N 40°30' W 073°38'0 0.0
2017-Sep-12 12:52N 40°30' W 073°39'0 0.1
2017-Sep-12 12:30N 40°30' W 073°39'0 0.1
2017-Sep-12 09:30N 40°30' W 073°38'0 0.0
2017-Sep-12 08:58N 40°30' W 073°38'0 0.0
2017-Sep-12 08:28N 40°30' W 073°38'0 0.0
2017-Sep-12 08:01N 40°30' W 073°38'0 0.0
2017-Sep-12 07:24N 40°30' W 073°38'0 0.0
2017-Sep-12 07:00N 40°30' W 073°38'0 0.0
2017-Sep-12 06:28N 40°30' W 073°38'0 0.0
2017-Sep-12 05:15N 40°30' W 073°38'0 0.0
2017-Sep-12 04:40N 40°30' W 073°38'0 0.1
2017-Sep-12 04:24N 40°30' W 073°38'  

Dump ship's entire track history